Time;durP1;ratioP1;P1;durP2;ratioP2;P2;SDS_P1;SDS_P2;PMS_P1;PMS_P2;Temp;Humidity;BMP_temperature;BMP_pressure;BME280_temperature;BME280_humidity;BME280_pressure;Samples;Min_cycle;Max_cycle;Signal;HPM_P1;HPM_P2
2022/06/07 00:03:12;;;;;;;1.03;1.03;;;;;;;;;;6212266;28;20242;-78
2022/06/07 00:06:33;;;;;;;0.97;0.97;;;;;;;;;;6215586;28;20229;-78
2022/06/07 00:09:54;;;;;;;0.90;0.90;;;;;;;;;;6190984;28;20572;-78
2022/06/07 00:13:16;;;;;;;1.30;1.00;;;;;;;;;;6191916;28;20225;-78
2022/06/07 00:16:37;;;;;;;1.40;1.20;;;;;;;;;;6188201;28;20233;-77
2022/06/07 00:19:57;;;;;;;1.60;1.20;;;;;;;;;;6183796;28;20517;-79
2022/06/07 00:23:19;;;;;;;1.47;1.37;;;;;;;;;;6212725;28;20236;-79
2022/06/07 00:26:41;;;;;;;1.40;1.30;;;;;;;;;;6211679;28;20221;-79
2022/06/07 00:30:03;;;;;;;4.00;1.67;;;;;;;;;;6213281;28;20237;-78
2022/06/07 00:33:24;;;;;;;1.63;1.30;;;;;;;;;;6214160;28;20232;-79
2022/06/07 00:36:45;;;;;;;1.60;1.50;;;;;;;;;;6215973;28;20272;-78
2022/06/07 00:40:07;;;;;;;1.97;1.57;;;;;;;;;;6220589;28;20550;-79
2022/06/07 00:43:28;;;;;;;1.90;1.80;;;;;;;;;;6222160;28;20228;-79
2022/06/07 00:46:50;;;;;;;1.20;1.20;;;;;;;;;;6203998;28;20236;-78
2022/06/07 00:50:15;;;;;;;1.50;1.40;;;;;;;;;;6188669;28;20319;-78
2022/06/07 00:53:36;;;;;;;1.50;1.40;;;;;;;;;;6203767;28;22009;-78
2022/06/07 00:57:12;;;;;;;1.67;1.57;;;;;;;;;;6214114;28;20232;-78
2022/06/07 01:00:33;;;;;;;1.30;1.20;;;;;;;;;;6208436;28;20241;-78
2022/06/07 01:03:56;;;;;;;1.93;1.60;;;;;;;;;;6200859;28;20905;-78
2022/06/07 01:11:02;;;;;;;1.73;1.60;;;;;;;;;;6209672;28;20228;-80
2022/06/07 01:14:25;;;;;;;2.53;2.30;;;;;;;;;;6202557;28;20225;-79
2022/06/07 01:17:46;;;;;;;4.93;3.23;;;;;;;;;;6218000;28;20227;-79
2022/06/07 01:21:21;;;;;;;3.70;2.40;;;;;;;;;;6215318;28;20228;-78
2022/06/07 01:24:43;;;;;;;3.37;2.27;;;;;;;;;;6195279;28;20248;-78
2022/06/07 01:28:05;;;;;;;1.90;1.80;;;;;;;;;;6218383;28;20224;-79
2022/06/07 01:31:26;;;;;;;2.80;1.47;;;;;;;;;;6204521;28;20229;-79
2022/06/07 01:34:47;;;;;;;1.40;1.30;;;;;;;;;;6217339;28;20232;-78
2022/06/07 01:38:09;;;;;;;1.50;1.40;;;;;;;;;;6218670;28;20224;-79
2022/06/07 01:45:08;;;;;;;2.73;1.50;;;;;;;;;;6199714;28;20228;-79
2022/06/07 01:48:32;;;;;;;2.37;1.80;;;;;;;;;;6188717;28;20902;-78
2022/06/07 01:51:54;;;;;;;1.40;1.30;;;;;;;;;;6195964;28;20239;-78
2022/06/07 01:55:17;;;;;;;1.40;1.30;;;;;;;;;;6212981;28;20228;-79
2022/06/07 01:59:00;;;;;;;1.53;1.43;;;;;;;;;;6205758;28;20316;-78
2022/06/07 02:02:24;;;;;;;2.10;1.40;;;;;;;;;;6193317;28;20230;-77
2022/06/07 02:05:53;;;;;;;1.40;1.30;;;;;;;;;;6193397;28;20233;-78
2022/06/07 02:09:14;;;;;;;1.60;1.50;;;;;;;;;;6183754;28;20222;-79
2022/06/07 02:12:37;;;;;;;3.90;1.73;;;;;;;;;;6195693;28;20347;-78
2022/06/07 02:15:58;;;;;;;1.30;1.20;;;;;;;;;;6194252;28;20250;-77
2022/06/07 02:19:18;;;;;;;1.40;1.30;;;;;;;;;;6193929;28;20245;-76
2022/06/07 02:22:40;;;;;;;1.47;1.37;;;;;;;;;;6192318;28;20224;-77
2022/06/07 02:26:02;;;;;;;1.20;1.13;;;;;;;;;;6193284;28;20236;-78
2022/06/07 02:29:26;;;;;;;0.90;0.90;;;;;;;;;;6195483;28;20682;-77
2022/06/07 02:32:46;;;;;;;1.47;1.33;;;;;;;;;;6187747;28;21309;-77
2022/06/07 02:36:08;;;;;;;1.57;1.47;;;;;;;;;;6195217;28;21183;-77
2022/06/07 02:39:29;;;;;;;1.27;1.17;;;;;;;;;;6190871;28;20238;-77
2022/06/07 02:42:50;;;;;;;1.70;1.60;;;;;;;;;;6200409;28;20229;-76
2022/06/07 02:46:12;;;;;;;2.10;1.77;;;;;;;;;;6163149;28;20276;-77
2022/06/07 02:49:34;;;;;;;1.10;1.10;;;;;;;;;;6182429;28;20241;-78
2022/06/07 02:52:55;;;;;;;1.20;1.20;;;;;;;;;;6197294;28;20460;-78
2022/06/07 02:56:19;;;;;;;1.30;1.20;;;;;;;;;;6182775;28;20230;-78
2022/06/07 02:59:40;;;;;;;1.80;1.20;;;;;;;;;;6182999;28;20320;-77
2022/06/07 03:03:03;;;;;;;1.33;1.23;;;;;;;;;;6187955;28;20233;-77
2022/06/07 03:06:26;;;;;;;1.20;1.17;;;;;;;;;;6204175;28;20626;-77
2022/06/07 03:09:47;;;;;;;1.40;1.30;;;;;;;;;;6198193;28;20220;-77
2022/06/07 03:13:08;;;;;;;1.03;1.03;;;;;;;;;;6215043;28;20229;-77
2022/06/07 03:16:29;;;;;;;3.33;1.77;;;;;;;;;;6208518;28;21111;-78
2022/06/07 03:19:54;;;;;;;1.87;1.13;;;;;;;;;;6198396;28;20228;-78
2022/06/07 03:23:16;;;;;;;2.33;1.30;;;;;;;;;;6199843;28;20627;-79
2022/06/07 03:26:43;;;;;;;1.20;1.10;;;;;;;;;;6199061;28;20228;-78
2022/06/07 03:30:08;;;;;;;2.10;1.27;;;;;;;;;;6219546;28;20649;-77
2022/06/07 03:33:34;;;;;;;1.00;1.00;;;;;;;;;;6202907;28;20233;-77
2022/06/07 03:36:56;;;;;;;1.40;1.30;;;;;;;;;;6185489;28;20225;-77
2022/06/07 03:40:42;;;;;;;1.07;1.00;;;;;;;;;;6461232;23;20383;-77
2022/06/07 03:44:00;;;;;;;1.30;1.20;;;;;;;;;;6196028;28;20241;-77
2022/06/07 03:47:21;;;;;;;1.00;0.87;;;;;;;;;;6192746;28;20232;-78
2022/06/07 03:50:45;;;;;;;0.90;0.90;;;;;;;;;;6197177;28;20594;-78
2022/06/07 03:54:07;;;;;;;1.40;1.10;;;;;;;;;;6199538;28;20700;-78
2022/06/07 03:57:29;;;;;;;1.90;1.00;;;;;;;;;;6193916;28;20244;-77
2022/06/07 04:00:53;;;;;;;0.73;0.73;;;;;;;;;;6210236;28;20320;-77
2022/06/07 04:04:14;;;;;;;1.10;1.10;;;;;;;;;;6207253;28;20229;-76
2022/06/07 04:11:16;;;;;;;1.10;1.00;;;;;;;;;;6197309;28;20236;-77
2022/06/07 04:14:47;;;;;;;1.20;1.10;;;;;;;;;;6196903;28;20228;-78
2022/06/07 04:18:10;;;;;;;1.40;1.30;;;;;;;;;;6210403;28;20229;-76
2022/06/07 04:21:31;;;;;;;1.20;1.10;;;;;;;;;;6200662;28;20232;-77
2022/06/07 04:25:03;;;;;;;1.50;1.40;;;;;;;;;;6213834;28;20659;-78
2022/06/07 04:28:28;;;;;;;1.37;1.27;;;;;;;;;;6214855;28;20256;-78
2022/06/07 04:31:49;;;;;;;1.80;1.70;;;;;;;;;;6215049;28;20229;-77
2022/06/07 04:35:10;;;;;;;1.97;1.87;;;;;;;;;;6196287;28;20232;-77
2022/06/07 04:38:31;;;;;;;1.93;1.80;;;;;;;;;;6213770;28;20224;-77
2022/06/07 04:41:53;;;;;;;1.83;1.70;;;;;;;;;;6195278;28;20232;-77
2022/06/07 04:45:22;;;;;;;1.87;1.77;;;;;;;;;;6201408;28;20240;-76
2022/06/07 04:49:01;;;;;;;1.80;1.70;;;;;;;;;;6198994;28;20237;-79
2022/06/07 04:52:24;;;;;;;2.67;2.30;;;;;;;;;;6198670;28;20727;-77
2022/06/07 04:55:48;;;;;;;3.80;2.57;;;;;;;;;;6202477;28;20233;-77
2022/06/07 04:59:13;;;;;;;2.17;2.03;;;;;;;;;;6214171;28;20228;-78
2022/06/07 05:02:44;;;;;;;2.80;2.47;;;;;;;;;;6190108;28;20617;-78
2022/06/07 05:06:15;;;;;;;2.93;2.73;;;;;;;;;;6201239;28;20239;-79
2022/06/07 05:09:36;;;;;;;3.03;2.83;;;;;;;;;;6204786;28;20229;-77
2022/06/07 05:13:05;;;;;;;3.07;2.83;;;;;;;;;;6197790;28;20237;-78
2022/06/07 05:16:29;;;;;;;3.83;2.83;;;;;;;;;;6196741;28;20224;-78
2022/06/07 05:19:52;;;;;;;2.60;2.40;;;;;;;;;;6192001;28;20237;-77
2022/06/07 05:23:14;;;;;;;2.30;2.10;;;;;;;;;;6178514;28;20259;-79
2022/06/07 05:26:42;;;;;;;2.77;2.57;;;;;;;;;;6192526;28;20220;-78
2022/06/07 05:30:04;;;;;;;3.40;3.10;;;;;;;;;;6203827;28;20236;-78
2022/06/07 05:33:35;;;;;;;3.97;3.63;;;;;;;;;;6209118;28;20800;-76
2022/06/07 05:36:57;;;;;;;3.30;3.00;;;;;;;;;;6208692;28;20233;-76
2022/06/07 05:40:18;;;;;;;3.17;2.87;;;;;;;;;;6214671;28;20252;-77
2022/06/07 05:43:40;;;;;;;4.07;3.67;;;;;;;;;;6203997;28;20648;-77
2022/06/07 05:47:02;;;;;;;4.80;4.07;;;;;;;;;;6213225;28;20823;-77
2022/06/07 05:50:34;;;;;;;5.20;4.20;;;;;;;;;;6215746;28;20339;-78
2022/06/07 05:53:59;;;;;;;4.30;4.00;;;;;;;;;;6207676;28;20252;-74
2022/06/07 05:57:20;;;;;;;5.40;5.00;;;;;;;;;;6207921;28;20871;-77
2022/06/07 06:00:43;;;;;;;6.27;5.77;;;;;;;;;;6208917;28;20236;-73
2022/06/07 06:04:07;;;;;;;6.00;5.53;;;;;;;;;;6203905;28;20892;-74
2022/06/07 06:07:33;;;;;;;5.53;5.13;;;;;;;;;;6203321;28;20551;-73
2022/06/07 06:11:04;;;;;;;6.70;6.20;;;;;;;;;;6222317;28;20248;-74
2022/06/07 06:14:26;;;;;;;7.97;7.17;;;;;;;;;;6200860;28;20707;-75
2022/06/07 06:17:56;;;;;;;9.40;7.10;;;;;;;;;;6198657;28;20224;-76
2022/06/07 06:21:26;;;;;;;8.10;6.27;;;;;;;;;;6197170;28;20327;-77
2022/06/07 06:24:47;;;;;;;8.03;7.33;;;;;;;;;;6198403;28;20698;-77
2022/06/07 06:28:09;;;;;;;7.60;7.00;;;;;;;;;;6201242;28;20237;-73
2022/06/07 06:31:29;;;;;;;9.17;8.37;;;;;;;;;;6194122;28;20668;-73
2022/06/07 06:34:51;;;;;;;7.50;6.80;;;;;;;;;;6200675;28;20240;-73
2022/06/07 06:38:12;;;;;;;7.87;7.23;;;;;;;;;;6194514;28;20238;-73
2022/06/07 06:41:34;;;;;;;10.57;7.67;;;;;;;;;;6201138;28;20240;-73
2022/06/07 06:44:58;;;;;;;8.50;7.67;;;;;;;;;;6208605;28;20315;-74
2022/06/07 06:48:21;;;;;;;9.50;8.47;;;;;;;;;;6203078;28;20237;-78
2022/06/07 06:51:44;;;;;;;9.70;8.90;;;;;;;;;;6169978;28;20233;-77
2022/06/07 06:55:07;;;;;;;11.77;8.20;;;;;;;;;;6200937;28;20236;-77
2022/06/07 06:58:28;;;;;;;9.77;9.07;;;;;;;;;;6199045;28;20268;-74
2022/06/07 07:01:51;;;;;;;10.37;9.27;;;;;;;;;;6195128;28;20236;-72
2022/06/07 07:05:13;;;;;;;11.43;10.23;;;;;;;;;;6207273;28;20224;-73
2022/06/07 07:08:38;;;;;;;10.63;9.53;;;;;;;;;;6203616;28;20236;-74
2022/06/07 07:12:00;;;;;;;10.00;9.07;;;;;;;;;;6200652;28;20224;-73
2022/06/07 07:15:30;;;;;;;10.57;9.57;;;;;;;;;;6200446;28;20232;-72
2022/06/07 07:19:00;;;;;;;9.23;8.43;;;;;;;;;;6203718;28;20221;-73
2022/06/07 07:22:24;;;;;;;9.73;8.93;;;;;;;;;;6197790;28;20237;-73
2022/06/07 07:25:46;;;;;;;10.73;8.40;;;;;;;;;;6198003;28;20312;-78
2022/06/07 07:29:09;;;;;;;11.43;8.03;;;;;;;;;;6200040;28;20324;-76
2022/06/07 07:32:31;;;;;;;8.53;6.77;;;;;;;;;;6194706;28;20518;-73
2022/06/07 07:35:53;;;;;;;7.00;6.27;;;;;;;;;;6198139;28;20248;-72
2022/06/07 07:39:15;;;;;;;7.13;6.43;;;;;;;;;;6216637;28;20228;-71
2022/06/07 07:42:36;;;;;;;5.87;5.43;;;;;;;;;;6202335;28;20236;-70
2022/06/07 07:46:05;;;;;;;6.30;5.70;;;;;;;;;;6206678;28;20240;-74
2022/06/07 07:49:28;;;;;;;6.93;5.63;;;;;;;;;;6196769;28;20289;-76
2022/06/07 07:52:51;;;;;;;6.13;5.47;;;;;;;;;;6216179;28;20231;-76
2022/06/07 07:56:11;;;;;;;7.57;5.93;;;;;;;;;;6195909;28;20335;-79
2022/06/07 07:59:35;;;;;;;6.43;5.83;;;;;;;;;;6199669;28;20237;-77
2022/06/07 08:02:58;;;;;;;6.80;5.40;;;;;;;;;;6201514;28;20252;-73
2022/06/07 08:06:30;;;;;;;6.60;5.63;;;;;;;;;;6197831;28;20224;-72
2022/06/07 08:09:52;;;;;;;5.40;4.80;;;;;;;;;;6216352;28;20613;-72
2022/06/07 08:13:12;;;;;;;6.07;4.60;;;;;;;;;;6202896;28;20232;-74
2022/06/07 08:16:33;;;;;;;5.23;4.73;;;;;;;;;;6185611;28;20232;-72
2022/06/07 08:19:54;;;;;;;5.93;4.00;;;;;;;;;;6215395;28;20221;-72
2022/06/07 08:23:14;;;;;;;4.23;3.83;;;;;;;;;;6204221;28;20524;-73
2022/06/07 08:26:36;;;;;;;5.60;3.93;;;;;;;;;;6215968;28;20229;-74
2022/06/07 08:29:57;;;;;;;6.80;4.07;;;;;;;;;;6208620;28;20229;-74
2022/06/07 08:40:42;;;;;;;5.00;4.53;;;;;;;;;;6220423;28;20228;-76
2022/06/07 08:44:05;;;;;;;6.83;5.20;;;;;;;;;;6217359;28;20847;-75
2022/06/07 08:47:29;;;;;;;6.17;5.10;;;;;;;;;;6217525;28;20229;-75
2022/06/07 08:50:54;;;;;;;6.77;5.17;;;;;;;;;;6218699;28;20632;-74
2022/06/07 08:54:17;;;;;;;7.03;5.37;;;;;;;;;;6207605;28;20260;-75
2022/06/07 08:57:38;;;;;;;6.57;5.60;;;;;;;;;;6227240;28;20232;-73
2022/06/07 09:01:03;;;;;;;6.73;5.70;;;;;;;;;;6229348;28;20224;-74
2022/06/07 09:04:25;;;;;;;5.30;4.83;;;;;;;;;;6213403;28;20236;-76
2022/06/07 09:07:46;;;;;;;7.00;5.93;;;;;;;;;;6215922;28;22524;-72
2022/06/07 09:14:47;;;;;;;5.30;4.73;;;;;;;;;;6213044;28;20526;-73
2022/06/07 09:18:12;;;;;;;5.70;5.20;;;;;;;;;;6217843;28;20232;-73
2022/06/07 09:21:33;;;;;;;5.43;4.93;;;;;;;;;;6223413;28;20343;-74
2022/06/07 09:24:59;;;;;;;5.73;3.93;;;;;;;;;;6220128;28;20216;-73
2022/06/07 09:28:23;;;;;;;5.10;4.67;;;;;;;;;;6222056;28;20232;-73
2022/06/07 09:31:45;;;;;;;5.50;5.00;;;;;;;;;;6211938;28;20216;-71
2022/06/07 09:35:09;;;;;;;6.03;5.43;;;;;;;;;;6220156;28;20264;-69
2022/06/07 09:38:32;;;;;;;5.07;4.67;;;;;;;;;;6219029;28;20229;-69
2022/06/07 09:41:57;;;;;;;5.83;5.33;;;;;;;;;;6220792;28;20252;-66
2022/06/07 09:45:20;;;;;;;6.07;4.83;;;;;;;;;;6216090;28;20233;-69
2022/06/07 09:48:42;;;;;;;5.43;4.47;;;;;;;;;;6219040;28;20232;-66
2022/06/07 09:52:06;;;;;;;5.03;4.47;;;;;;;;;;6221597;28;20217;-69
2022/06/07 09:55:30;;;;;;;9.43;5.18;;;;;;;;;;6215831;28;20249;-69
2022/06/07 09:58:55;;;;;;;5.43;4.43;;;;;;;;;;6205832;28;20233;-68
2022/06/07 10:02:28;;;;;;;6.18;4.93;;;;;;;;;;6219553;28;20228;-68
2022/06/07 10:05:53;;;;;;;6.10;4.50;;;;;;;;;;6213615;28;20255;-68
2022/06/07 10:09:25;;;;;;;8.77;4.90;;;;;;;;;;6215469;28;20551;-68
2022/06/07 10:13:03;;;;;;;5.47;5.07;;;;;;;;;;6222033;28;20236;-67
2022/06/07 10:16:28;;;;;;;5.03;4.53;;;;;;;;;;6201028;28;20272;-68
2022/06/07 10:19:52;;;;;;;6.60;4.72;;;;;;;;;;6216263;28;20232;-69
2022/06/07 10:23:19;;;;;;;7.20;4.50;;;;;;;;;;6218631;28;20236;-69
2022/06/07 10:26:50;;;;;;;6.40;5.80;;;;;;;;;;6214629;28;20274;-68
2022/06/07 10:30:18;;;;;;;4.45;4.05;;;;;;;;;;6222942;28;20236;-68
2022/06/07 10:33:50;;;;;;;5.05;3.78;;;;;;;;;;6204483;28;20276;-71
2022/06/07 10:37:18;;;;;;;5.18;4.68;;;;;;;;;;6221425;28;20308;-68
2022/06/07 10:40:39;;;;;;;5.90;5.03;;;;;;;;;;6226936;28;20232;-68
2022/06/07 10:44:05;;;;;;;6.75;5.78;;;;;;;;;;6217859;28;20327;-71
2022/06/07 10:47:28;;;;;;;5.90;4.10;;;;;;;;;;6217744;28;20323;-69
2022/06/07 10:50:50;;;;;;;4.95;4.60;;;;;;;;;;6219759;28;20521;-68
2022/06/07 10:54:14;;;;;;;4.60;4.20;;;;;;;;;;6222936;28;20256;-69
2022/06/07 10:57:38;;;;;;;5.85;4.97;;;;;;;;;;6220872;28;20525;-68
2022/06/07 11:01:03;;;;;;;6.50;5.90;;;;;;;;;;6221910;28;20228;-68
2022/06/07 11:11:50;;;;;;;7.50;6.72;;;;;;;;;;6220184;28;20712;-68
2022/06/07 11:15:13;;;;;;;7.95;7.35;;;;;;;;;;6221038;28;20300;-67
2022/06/07 11:18:36;;;;;;;6.47;5.97;;;;;;;;;;6218580;28;20236;-68
2022/06/07 11:21:58;;;;;;;7.35;6.65;;;;;;;;;;6216326;28;20280;-67
2022/06/07 11:25:32;;;;;;;6.43;5.75;;;;;;;;;;6220328;28;20229;-75
2022/06/07 11:28:54;;;;;;;10.73;8.25;;;;;;;;;;6212877;28;20239;-68
2022/06/07 11:32:33;;;;;;;9.30;8.45;;;;;;;;;;6219504;28;20236;-74
2022/06/07 11:36:05;;;;;;;8.38;7.72;;;;;;;;;;6211080;28;20225;-72
2022/06/07 11:39:31;;;;;;;13.63;8.32;;;;;;;;;;6192973;28;20233;-75
2022/06/07 11:42:51;;;;;;;11.37;10.20;;;;;;;;;;6221729;28;20328;-73
2022/06/07 11:46:22;;;;;;;9.77;8.87;;;;;;;;;;6201615;28;20232;-73
2022/06/07 11:49:42;;;;;;;9.83;8.97;;;;;;;;;;6212440;28;20235;-75
2022/06/07 11:53:24;;;;;;;10.20;9.15;;;;;;;;;;6214047;28;20216;-73
2022/06/07 11:56:50;;;;;;;9.80;8.90;;;;;;;;;;6218231;28;20233;-72
2022/06/07 12:00:37;;;;;;;10.07;9.18;;;;;;;;;;6196467;28;20229;-70
2022/06/07 12:04:18;;;;;;;9.68;8.77;;;;;;;;;;6208983;28;20252;-71
2022/06/07 12:07:48;;;;;;;9.63;8.80;;;;;;;;;;6214402;28;20328;-70
2022/06/07 12:11:21;;;;;;;10.82;9.77;;;;;;;;;;6217855;28;20635;-73
2022/06/07 12:14:43;;;;;;;10.53;9.30;;;;;;;;;;6213913;28;20228;-71
2022/06/07 12:18:05;;;;;;;10.45;9.57;;;;;;;;;;6213135;28;20231;-72
2022/06/07 12:21:27;;;;;;;10.32;9.35;;;;;;;;;;6215680;28;20310;-71
2022/06/07 12:24:49;;;;;;;11.40;10.30;;;;;;;;;;6213449;28;20232;-69
2022/06/07 12:28:19;;;;;;;10.40;9.47;;;;;;;;;;6216251;28;20232;-70
2022/06/07 12:31:45;;;;;;;12.47;11.47;;;;;;;;;;6214892;28;20232;-70
2022/06/07 12:35:08;;;;;;;9.13;8.43;;;;;;;;;;6210977;28;20232;-70
2022/06/07 12:38:30;;;;;;;10.63;9.73;;;;;;;;;;6210972;28;20232;-70
2022/06/07 12:41:52;;;;;;;11.03;9.90;;;;;;;;;;6211511;28;20237;-70
2022/06/07 12:45:19;;;;;;;10.47;9.43;;;;;;;;;;6213936;28;20236;-68
2022/06/07 12:48:41;;;;;;;12.75;10.48;;;;;;;;;;6214057;28;20237;-70
2022/06/07 12:52:03;;;;;;;10.27;9.47;;;;;;;;;;6211424;28;20260;-69
2022/06/07 12:55:25;;;;;;;10.32;9.50;;;;;;;;;;6216684;28;20653;-70
2022/06/07 12:58:49;;;;;;;11.03;9.00;;;;;;;;;;6206667;28;20225;-71
2022/06/07 13:02:13;;;;;;;11.17;10.27;;;;;;;;;;6214331;28;20228;-71
2022/06/07 13:05:36;;;;;;;12.20;11.10;;;;;;;;;;6217875;28;20236;-72
2022/06/07 13:09:00;;;;;;;11.47;10.47;;;;;;;;;;6215838;28;20280;-70
2022/06/07 13:12:23;;;;;;;10.68;9.82;;;;;;;;;;6222167;28;20244;-71
2022/06/07 13:15:52;;;;;;;10.18;9.48;;;;;;;;;;6224831;28;20216;-72
2022/06/07 13:19:22;;;;;;;10.48;9.50;;;;;;;;;;6218373;28;20228;-71
2022/06/07 13:22:45;;;;;;;9.68;8.75;;;;;;;;;;6220412;28;20232;-72
2022/06/07 13:26:10;;;;;;;10.27;8.80;;;;;;;;;;6217052;28;20225;-73
2022/06/07 13:29:32;;;;;;;8.75;7.95;;;;;;;;;;6220482;28;20228;-72
2022/06/07 13:33:00;;;;;;;9.03;7.97;;;;;;;;;;6226142;28;20312;-71
2022/06/07 13:36:31;;;;;;;11.05;9.95;;;;;;;;;;6220553;28;20239;-78
2022/06/07 13:39:58;;;;;;;9.43;8.52;;;;;;;;;;6223675;28;20303;-74
2022/06/07 13:43:22;;;;;;;12.15;10.95;;;;;;;;;;6226902;28;20228;-73
2022/06/07 13:46:51;;;;;;;10.23;9.10;;;;;;;;;;6224688;28;20702;-71
2022/06/07 13:54:13;;;;;;;9.15;8.25;;;;;;;;;;6232486;28;20220;-71
2022/06/07 13:57:35;;;;;;;10.15;9.15;;;;;;;;;;6212619;28;20236;-73
2022/06/07 14:00:58;;;;;;;12.00;11.00;;;;;;;;;;6218685;28;20688;-78
2022/06/07 14:04:22;;;;;;;11.02;9.90;;;;;;;;;;6225500;28;20233;-71
2022/06/07 14:07:42;;;;;;;10.85;9.95;;;;;;;;;;6225587;28;20594;-74
2022/06/07 14:11:05;;;;;;;11.27;10.18;;;;;;;;;;6221127;28;20233;-78
2022/06/07 14:14:27;;;;;;;10.68;9.68;;;;;;;;;;6221710;28;20228;-71
2022/06/07 14:17:49;;;;;;;10.32;9.43;;;;;;;;;;6215241;28;20225;-75
2022/06/07 14:21:10;;;;;;;10.23;9.30;;;;;;;;;;6214841;28;20260;-74
2022/06/07 14:24:31;;;;;;;9.18;8.48;;;;;;;;;;6211745;28;20252;-74
2022/06/07 14:27:51;;;;;;;9.65;8.85;;;;;;;;;;6205785;28;20228;-75
2022/06/07 14:31:17;;;;;;;10.10;9.02;;;;;;;;;;6202769;28;20362;-76
2022/06/07 14:34:39;;;;;;;10.60;9.52;;;;;;;;;;6211763;28;20237;-75
2022/06/07 14:38:00;;;;;;;10.45;9.30;;;;;;;;;;6207043;28;20233;-74
2022/06/07 14:41:41;;;;;;;10.70;9.15;;;;;;;;;;6207988;28;20231;-72
2022/06/07 14:45:01;;;;;;;8.53;7.73;;;;;;;;;;6204065;28;20522;-73
2022/06/07 14:48:26;;;;;;;8.38;7.68;;;;;;;;;;6204027;28;20237;-72
2022/06/07 14:51:47;;;;;;;8.98;8.25;;;;;;;;;;6210213;28;20256;-71
2022/06/07 14:55:10;;;;;;;9.70;8.82;;;;;;;;;;6213597;28;20256;-71
2022/06/07 14:58:30;;;;;;;9.77;8.85;;;;;;;;;;6210875;28;20241;-72
2022/06/07 15:01:52;;;;;;;9.43;8.50;;;;;;;;;;6215799;28;20512;-70
2022/06/07 15:05:17;;;;;;;9.57;8.65;;;;;;;;;;6207063;28;20240;-69
2022/06/07 15:08:37;;;;;;;9.00;7.90;;;;;;;;;;6202139;28;20233;-73
2022/06/07 15:11:59;;;;;;;8.73;7.75;;;;;;;;;;6208408;28;20779;-73
2022/06/07 15:15:20;;;;;;;9.30;8.38;;;;;;;;;;6210655;28;20232;-73
2022/06/07 15:18:40;;;;;;;9.18;8.18;;;;;;;;;;6214376;28;20224;-72
2022/06/07 15:22:02;;;;;;;11.73;10.43;;;;;;;;;;6214043;28;20237;-73
2022/06/07 15:25:24;;;;;;;9.10;8.30;;;;;;;;;;6215049;28;20517;-74
2022/06/07 15:28:45;;;;;;;9.83;8.87;;;;;;;;;;6214964;28;20228;-72
2022/06/07 15:32:12;;;;;;;10.90;9.90;;;;;;;;;;6215486;28;20618;-73
2022/06/07 15:35:34;;;;;;;10.70;9.70;;;;;;;;;;6205940;28;20233;-72
2022/06/07 15:38:56;;;;;;;11.57;10.03;;;;;;;;;;6213930;28;20225;-72
2022/06/07 15:45:55;;;;;;;10.87;9.77;;;;;;;;;;6200640;28;20610;-71
2022/06/07 15:49:16;;;;;;;10.82;9.93;;;;;;;;;;6206688;28;20347;-71
2022/06/07 15:52:37;;;;;;;8.48;7.68;;;;;;;;;;6194196;28;20233;-71
2022/06/07 15:56:00;;;;;;;8.00;7.40;;;;;;;;;;6216766;28;20679;-70
2022/06/07 15:59:22;;;;;;;9.15;8.05;;;;;;;;;;6206015;28;20617;-71
2022/06/07 16:02:43;;;;;;;7.25;6.65;;;;;;;;;;6212601;28;20248;-68
2022/06/07 16:06:04;;;;;;;8.27;7.57;;;;;;;;;;6203524;28;20233;-70
2022/06/07 16:09:25;;;;;;;8.13;7.43;;;;;;;;;;6212762;28;20240;-69
2022/06/07 16:12:48;;;;;;;8.82;8.00;;;;;;;;;;6219979;28;20239;-72
2022/06/07 16:16:08;;;;;;;9.82;8.60;;;;;;;;;;6220761;28;20229;-72
2022/06/07 16:19:29;;;;;;;8.10;7.32;;;;;;;;;;6212583;28;20228;-71
2022/06/07 16:22:50;;;;;;;10.57;9.38;;;;;;;;;;6209561;28;20233;-71
2022/06/07 16:26:11;;;;;;;9.52;8.70;;;;;;;;;;6200806;28;20241;-71
2022/06/07 16:33:20;;;;;;;10.67;8.37;;;;;;;;;;6201746;28;20239;-72
2022/06/07 16:36:43;;;;;;;10.33;9.27;;;;;;;;;;6203079;28;20240;-72
2022/06/07 16:40:03;;;;;;;11.50;10.27;;;;;;;;;;6196659;28;20992;-71
2022/06/07 16:47:04;;;;;;;11.80;10.25;;;;;;;;;;6219227;28;20545;-71
2022/06/07 16:50:24;;;;;;;13.85;9.30;;;;;;;;;;6220429;28;20232;-70
2022/06/07 16:53:45;;;;;;;11.30;10.10;;;;;;;;;;6220846;28;20605;-73
2022/06/07 16:57:07;;;;;;;14.05;10.80;;;;;;;;;;6217672;28;20255;-71
2022/06/07 17:00:27;;;;;;;12.33;9.87;;;;;;;;;;6216328;28;20228;-73
2022/06/07 17:03:50;;;;;;;10.65;9.57;;;;;;;;;;6213736;28;23679;-71
2022/06/07 17:07:10;;;;;;;10.83;9.70;;;;;;;;;;6212274;28;20225;-72
2022/06/07 17:10:31;;;;;;;12.00;10.63;;;;;;;;;;6212895;28;20279;-72
2022/06/07 17:13:52;;;;;;;11.67;10.03;;;;;;;;;;6221023;28;20224;-70
2022/06/07 17:17:14;;;;;;;10.13;8.60;;;;;;;;;;6216999;28;20233;-71
2022/06/07 17:20:38;;;;;;;9.43;8.63;;;;;;;;;;6218820;28;20229;-70
2022/06/07 17:23:59;;;;;;;10.33;8.57;;;;;;;;;;6222573;28;20232;-71
2022/06/07 17:27:20;;;;;;;10.07;9.07;;;;;;;;;;6225665;28;20229;-72
2022/06/07 17:30:40;;;;;;;10.90;9.40;;;;;;;;;;6224623;28;20630;-70
2022/06/07 17:34:05;;;;;;;9.60;8.53;;;;;;;;;;6229441;28;20315;-72
2022/06/07 17:37:28;;;;;;;9.17;8.23;;;;;;;;;;6226644;28;20308;-71
2022/06/07 17:40:49;;;;;;;9.37;8.33;;;;;;;;;;6231781;28;20244;-72
2022/06/07 17:44:09;;;;;;;12.57;9.50;;;;;;;;;;6232467;28;20228;-71
2022/06/07 17:47:30;;;;;;;12.80;8.27;;;;;;;;;;6226146;28;20240;-70
2022/06/07 17:50:51;;;;;;;10.98;9.90;;;;;;;;;;6230040;28;20253;-71
2022/06/07 17:54:13;;;;;;;10.43;9.43;;;;;;;;;;6225494;28;20331;-72
2022/06/07 17:57:34;;;;;;;12.40;8.83;;;;;;;;;;6230320;28;20224;-72
2022/06/07 18:00:54;;;;;;;10.87;8.23;;;;;;;;;;6228777;28;20327;-71
2022/06/07 18:04:15;;;;;;;9.23;8.33;;;;;;;;;;6223582;28;20237;-71
2022/06/07 18:07:36;;;;;;;10.93;9.13;;;;;;;;;;6230550;28;20602;-71
2022/06/07 18:10:58;;;;;;;8.48;7.68;;;;;;;;;;6218783;28;20602;-70
2022/06/07 18:14:18;;;;;;;7.80;7.10;;;;;;;;;;6227328;28;22011;-72
2022/06/07 18:17:39;;;;;;;7.30;6.60;;;;;;;;;;6222378;28;20228;-71
2022/06/07 18:21:01;;;;;;;8.70;7.20;;;;;;;;;;6215171;28;20232;-70
2022/06/07 18:24:21;;;;;;;7.70;6.53;;;;;;;;;;6221279;28;20232;-69
2022/06/07 18:27:43;;;;;;;6.73;6.13;;;;;;;;;;6224766;28;20229;-70
2022/06/07 18:31:05;;;;;;;12.60;6.27;;;;;;;;;;6222209;28;20236;-70
2022/06/07 18:34:27;;;;;;;6.40;5.77;;;;;;;;;;6221576;28;20335;-70
2022/06/07 18:37:48;;;;;;;6.47;5.17;;;;;;;;;;6225839;28;20240;-70
2022/06/07 18:41:11;;;;;;;6.68;5.07;;;;;;;;;;6226793;28;20225;-69
2022/06/07 18:44:33;;;;;;;6.10;5.40;;;;;;;;;;6227939;28;20315;-70
2022/06/07 18:47:53;;;;;;;7.25;5.57;;;;;;;;;;6227834;28;20232;-69
2022/06/07 18:51:15;;;;;;;6.15;5.43;;;;;;;;;;6204605;28;20248;-70
2022/06/07 18:54:36;;;;;;;5.90;4.38;;;;;;;;;;6210988;28;20552;-70
2022/06/07 18:57:57;;;;;;;4.82;4.43;;;;;;;;;;6214839;28;22192;-70
2022/06/07 19:01:22;;;;;;;5.23;4.30;;;;;;;;;;6221082;28;20232;-71
2022/06/07 19:04:43;;;;;;;8.90;4.93;;;;;;;;;;6219227;28;20320;-71
2022/06/07 19:08:04;;;;;;;4.47;4.03;;;;;;;;;;6223169;28;20228;-71
2022/06/07 19:11:28;;;;;;;4.70;4.13;;;;;;;;;;6218466;28;20228;-70
2022/06/07 19:14:49;;;;;;;10.07;4.23;;;;;;;;;;6212598;28;20520;-72
2022/06/07 19:18:12;;;;;;;4.00;3.70;;;;;;;;;;6213344;28;20232;-71
2022/06/07 19:21:34;;;;;;;5.67;3.70;;;;;;;;;;6209123;28;20236;-70
2022/06/07 19:24:54;;;;;;;4.87;3.17;;;;;;;;;;6204400;28;20237;-71
2022/06/07 19:28:16;;;;;;;3.13;2.83;;;;;;;;;;6208354;28;20502;-72
2022/06/07 19:31:37;;;;;;;6.87;2.80;;;;;;;;;;6207625;28;20233;-71
2022/06/07 19:35:00;;;;;;;6.47;3.07;;;;;;;;;;6201044;28;20233;-73
2022/06/07 19:38:21;;;;;;;5.73;2.60;;;;;;;;;;6208613;28;20247;-71
2022/06/07 19:41:42;;;;;;;3.05;2.58;;;;;;;;;;6207828;28;20224;-71
2022/06/07 19:45:02;;;;;;;2.53;2.27;;;;;;;;;;6207994;28;21789;-71
2022/06/07 19:48:23;;;;;;;3.20;2.73;;;;;;;;;;6208026;28;21631;-71
2022/06/07 19:51:45;;;;;;;3.63;2.47;;;;;;;;;;6218096;28;20237;-70
2022/06/07 19:55:07;;;;;;;2.87;2.57;;;;;;;;;;6213518;28;20233;-70
2022/06/07 19:58:28;;;;;;;4.77;3.57;;;;;;;;;;6214907;28;20224;-72
2022/06/07 20:01:49;;;;;;;4.18;3.40;;;;;;;;;;6214433;28;20220;-71
2022/06/07 20:05:10;;;;;;;4.67;3.07;;;;;;;;;;6213090;28;20676;-71
2022/06/07 20:08:32;;;;;;;4.27;3.87;;;;;;;;;;6216137;28;20229;-71
2022/06/07 20:11:53;;;;;;;6.13;3.63;;;;;;;;;;6182099;28;20665;-70
2022/06/07 20:15:14;;;;;;;5.03;3.53;;;;;;;;;;6208481;28;20283;-70
2022/06/07 20:18:34;;;;;;;4.43;4.03;;;;;;;;;;6215314;28;21228;-70
2022/06/07 20:21:55;;;;;;;4.50;3.50;;;;;;;;;;6211451;28;20308;-71
2022/06/07 20:25:17;;;;;;;4.00;3.70;;;;;;;;;;6223819;28;20288;-73
2022/06/07 20:28:38;;;;;;;4.37;3.97;;;;;;;;;;6213307;28;20236;-72
2022/06/07 20:31:59;;;;;;;4.67;4.20;;;;;;;;;;6198930;28;20232;-71
2022/06/07 20:35:21;;;;;;;5.80;3.60;;;;;;;;;;6219728;28;20241;-71
2022/06/07 20:38:41;;;;;;;3.63;3.30;;;;;;;;;;6220568;28;20252;-71
2022/06/07 20:42:04;;;;;;;5.70;3.27;;;;;;;;;;6220224;28;20237;-71
2022/06/07 20:45:24;;;;;;;5.30;4.10;;;;;;;;;;6223876;28;20220;-71
2022/06/07 20:48:45;;;;;;;8.07;3.87;;;;;;;;;;6217916;28;20233;-71
2022/06/07 20:52:06;;;;;;;4.13;3.70;;;;;;;;;;6215080;28;20233;-70
2022/06/07 20:55:27;;;;;;;6.53;3.77;;;;;;;;;;6222061;28;20240;-70
2022/06/07 20:58:49;;;;;;;4.60;2.97;;;;;;;;;;6222613;28;20224;-70